< Typhoon 198118 1981 Season Typhoon 198120 >
Typhoon 198119 (BILL)
General InformationTrack Information on Google MapsDetailed Wind InformationList of All Images || Disaster Info.ResourceGoogle EarthGE AnimationAtom FeedGeoJSON
Detalied Best Track (Time Zone = UTC)
Year Month Day Hour Lat. Long. Pressure (hPa) Wind (kt) Class Image Chart
1981 9 1 18 22.0 159.5 1010 0 2 Image Chart
1981 9 2 00 22.0 158.5 1010 0 2 Image Chart
1981 9 2 06 22.0 157.5 1008 0 2 Image Chart
1981 9 2 12 22.0 156.5 1006 0 2 Image Chart
1981 9 2 18 22.0 155.5 1004 0 2 Image Chart
1981 9 3 00 22.1 154.3 1000 0 2 Image Chart
1981 9 3 06 22.4 153.3 994 0 2 Image Chart
1981 9 3 12 22.8 152.1 992 45 3 Image Chart
1981 9 3 18 23.0 151.2 990 50 4 Image Chart
1981 9 4 00 23.2 150.3 985 50 4 Image Chart
1981 9 4 06 24.0 149.3 980 55 4 Image Chart
1981 9 4 12 24.8 148.3 975 65 5 Image Chart
1981 9 4 18 25.4 147.5 970 65 5 Image Chart
1981 9 5 00 26.0 146.7 960 70 5 Image Chart
1981 9 5 06 27.1 146.0 960 70 5 Image Chart
1981 9 5 12 28.2 145.6 960 75 5 Image Chart
1981 9 5 18 29.4 145.5 960 70 5 Image Chart
1981 9 6 00 31.0 145.7 960 70 5 Image Chart
1981 9 6 06 32.7 146.2 965 70 5 Image Chart
1981 9 6 12 34.5 147.3 970 60 4 Image Chart
1981 9 6 18 36.5 149.2 970 60 4 Image Chart
1981 9 7 00 38.8 152.5 980 50 4 Image Chart
1981 9 7 06 40.5 156.5 990 0 6 Image Chart
1981 9 7 12 42.0 161.0 990 0 6 Image Chart
1981 9 7 18 43.5 166.5 992 0 6 Image Chart
1981 9 8 00 45.0 172.0 992 0 6 Image Chart
1981 9 8 06 46.0 177.0 994 0 6 Image Chart
Japan Meteorological Agency Best Track Data | Correction Date : 1992-10-21
< Typhoon 198118 1981 Season Typhoon 198120 >

Help